sensor_id;sensor_type;location;lat;lon;timestamp;P1;durP1;ratioP1;P2;durP2;ratioP2
11488;SDS011;5801;50.804;12.638;2023-06-14T00:01:18;2.90;;;2.35;;
11488;SDS011;5801;50.804;12.638;2023-06-14T00:03:45;5.43;;;3.03;;
11488;SDS011;5801;50.804;12.638;2023-06-14T00:06:12;4.28;;;2.35;;
11488;SDS011;5801;50.804;12.638;2023-06-14T00:08:38;4.60;;;2.90;;
11488;SDS011;5801;50.804;12.638;2023-06-14T00:11:05;3.15;;;2.38;;
11488;SDS011;5801;50.804;12.638;2023-06-14T00:13:31;4.47;;;2.83;;
11488;SDS011;5801;50.804;12.638;2023-06-14T00:15:57;3.20;;;2.60;;
11488;SDS011;5801;50.804;12.638;2023-06-14T00:18:23;5.63;;;3.08;;
11488;SDS011;5801;50.804;12.638;2023-06-14T00:20:51;3.50;;;2.72;;
11488;SDS011;5801;50.804;12.638;2023-06-14T00:23:17;3.22;;;2.83;;
11488;SDS011;5801;50.804;12.638;2023-06-14T00:25:43;3.10;;;2.30;;
11488;SDS011;5801;50.804;12.638;2023-06-14T00:28:09;3.60;;;2.53;;
11488;SDS011;5801;50.804;12.638;2023-06-14T00:30:35;5.03;;;2.92;;
11488;SDS011;5801;50.804;12.638;2023-06-14T00:33:01;4.13;;;2.67;;
11488;SDS011;5801;50.804;12.638;2023-06-14T00:35:27;6.35;;;2.97;;
11488;SDS011;5801;50.804;12.638;2023-06-14T00:37:53;2.70;;;2.40;;
11488;SDS011;5801;50.804;12.638;2023-06-14T00:40:19;3.22;;;2.38;;
11488;SDS011;5801;50.804;12.638;2023-06-14T00:42:46;3.10;;;2.30;;
11488;SDS011;5801;50.804;12.638;2023-06-14T00:45:12;4.22;;;2.70;;
11488;SDS011;5801;50.804;12.638;2023-06-14T00:47:38;3.38;;;2.10;;
11488;SDS011;5801;50.804;12.638;2023-06-14T00:50:07;2.95;;;2.53;;
11488;SDS011;5801;50.804;12.638;2023-06-14T00:52:33;3.20;;;2.58;;
11488;SDS011;5801;50.804;12.638;2023-06-14T00:54:59;7.13;;;2.47;;
11488;SDS011;5801;50.804;12.638;2023-06-14T00:57:25;2.60;;;2.40;;
11488;SDS011;5801;50.804;12.638;2023-06-14T00:59:51;3.55;;;2.55;;
11488;SDS011;5801;50.804;12.638;2023-06-14T01:02:17;2.97;;;2.58;;
11488;SDS011;5801;50.804;12.638;2023-06-14T01:04:45;3.30;;;2.42;;
11488;SDS011;5801;50.804;12.638;2023-06-14T01:14:59;3.67;;;2.63;;
11488;SDS011;5801;50.804;12.638;2023-06-14T01:17:25;3.03;;;2.67;;
11488;SDS011;5801;50.804;12.638;2023-06-14T01:19:52;10.27;;;2.60;;
11488;SDS011;5801;50.804;12.638;2023-06-14T01:22:23;3.97;;;2.63;;
11488;SDS011;5801;50.804;12.638;2023-06-14T01:24:49;3.08;;;2.50;;
11488;SDS011;5801;50.804;12.638;2023-06-14T01:27:15;4.10;;;2.67;;
11488;SDS011;5801;50.804;12.638;2023-06-14T01:29:41;4.68;;;2.58;;
11488;SDS011;5801;50.804;12.638;2023-06-14T01:32:10;4.20;;;2.67;;
11488;SDS011;5801;50.804;12.638;2023-06-14T01:34:36;3.72;;;2.50;;
11488;SDS011;5801;50.804;12.638;2023-06-14T01:37:02;4.60;;;2.83;;
11488;SDS011;5801;50.804;12.638;2023-06-14T01:39:28;5.10;;;2.95;;
11488;SDS011;5801;50.804;12.638;2023-06-14T01:41:55;5.30;;;2.85;;
11488;SDS011;5801;50.804;12.638;2023-06-14T01:44:23;9.40;;;2.83;;
11488;SDS011;5801;50.804;12.638;2023-06-14T01:46:49;3.65;;;2.95;;
11488;SDS011;5801;50.804;12.638;2023-06-14T01:49:15;3.67;;;2.60;;
11488;SDS011;5801;50.804;12.638;2023-06-14T01:51:41;3.53;;;2.75;;
11488;SDS011;5801;50.804;12.638;2023-06-14T01:54:07;3.80;;;2.83;;
11488;SDS011;5801;50.804;12.638;2023-06-14T01:56:32;3.65;;;2.72;;
11488;SDS011;5801;50.804;12.638;2023-06-14T01:58:58;3.90;;;2.92;;
11488;SDS011;5801;50.804;12.638;2023-06-14T02:01:24;3.15;;;2.50;;
11488;SDS011;5801;50.804;12.638;2023-06-14T02:03:51;5.38;;;3.65;;
11488;SDS011;5801;50.804;12.638;2023-06-14T02:06:18;3.72;;;2.95;;
11488;SDS011;5801;50.804;12.638;2023-06-14T02:08:44;3.17;;;2.67;;
11488;SDS011;5801;50.804;12.638;2023-06-14T02:11:10;3.85;;;2.55;;
11488;SDS011;5801;50.804;12.638;2023-06-14T02:13:36;3.40;;;2.65;;
11488;SDS011;5801;50.804;12.638;2023-06-14T02:16:02;4.03;;;3.13;;
11488;SDS011;5801;50.804;12.638;2023-06-14T02:18:28;3.28;;;2.60;;
11488;SDS011;5801;50.804;12.638;2023-06-14T02:20:54;10.63;;;2.67;;
11488;SDS011;5801;50.804;12.638;2023-06-14T02:23:20;3.60;;;2.83;;
11488;SDS011;5801;50.804;12.638;2023-06-14T02:25:46;3.63;;;2.80;;
11488;SDS011;5801;50.804;12.638;2023-06-14T02:28:12;3.22;;;2.47;;
11488;SDS011;5801;50.804;12.638;2023-06-14T02:30:38;3.45;;;2.70;;
11488;SDS011;5801;50.804;12.638;2023-06-14T02:33:05;2.85;;;2.58;;
11488;SDS011;5801;50.804;12.638;2023-06-14T02:35:31;5.40;;;2.80;;
11488;SDS011;5801;50.804;12.638;2023-06-14T02:37:57;3.25;;;2.53;;
11488;SDS011;5801;50.804;12.638;2023-06-14T02:40:23;3.20;;;2.88;;
11488;SDS011;5801;50.804;12.638;2023-06-14T02:42:49;6.28;;;3.15;;
11488;SDS011;5801;50.804;12.638;2023-06-14T02:45:15;3.60;;;2.78;;
11488;SDS011;5801;50.804;12.638;2023-06-14T02:47:41;4.70;;;3.13;;
11488;SDS011;5801;50.804;12.638;2023-06-14T02:50:07;4.28;;;3.17;;
11488;SDS011;5801;50.804;12.638;2023-06-14T02:52:34;7.97;;;3.00;;
11488;SDS011;5801;50.804;12.638;2023-06-14T02:55:00;3.95;;;2.90;;
11488;SDS011;5801;50.804;12.638;2023-06-14T02:57:26;3.78;;;2.85;;
11488;SDS011;5801;50.804;12.638;2023-06-14T02:59:52;4.25;;;2.97;;
11488;SDS011;5801;50.804;12.638;2023-06-14T03:02:17;4.55;;;3.17;;
11488;SDS011;5801;50.804;12.638;2023-06-14T03:04:43;6.00;;;3.28;;
11488;SDS011;5801;50.804;12.638;2023-06-14T03:07:12;3.85;;;2.60;;
11488;SDS011;5801;50.804;12.638;2023-06-14T03:09:38;4.80;;;2.97;;
11488;SDS011;5801;50.804;12.638;2023-06-14T03:12:04;4.00;;;3.10;;
11488;SDS011;5801;50.804;12.638;2023-06-14T03:14:37;2.90;;;2.40;;
11488;SDS011;5801;50.804;12.638;2023-06-14T03:17:03;6.75;;;3.08;;
11488;SDS011;5801;50.804;12.638;2023-06-14T03:19:29;4.68;;;3.05;;
11488;SDS011;5801;50.804;12.638;2023-06-14T03:21:55;3.42;;;2.70;;
11488;SDS011;5801;50.804;12.638;2023-06-14T03:24:24;4.47;;;3.17;;
11488;SDS011;5801;50.804;12.638;2023-06-14T03:26:52;4.88;;;3.63;;
11488;SDS011;5801;50.804;12.638;2023-06-14T03:29:18;6.40;;;2.72;;
11488;SDS011;5801;50.804;12.638;2023-06-14T03:31:56;3.33;;;2.80;;
11488;SDS011;5801;50.804;12.638;2023-06-14T03:34:23;3.75;;;2.67;;
11488;SDS011;5801;50.804;12.638;2023-06-14T03:36:49;3.97;;;2.72;;
11488;SDS011;5801;50.804;12.638;2023-06-14T03:39:15;4.47;;;3.25;;
11488;SDS011;5801;50.804;12.638;2023-06-14T03:41:41;3.35;;;2.45;;
11488;SDS011;5801;50.804;12.638;2023-06-14T03:44:06;4.75;;;2.90;;
11488;SDS011;5801;50.804;12.638;2023-06-14T03:46:32;5.38;;;3.63;;
11488;SDS011;5801;50.804;12.638;2023-06-14T03:48:58;5.45;;;3.03;;
11488;SDS011;5801;50.804;12.638;2023-06-14T03:51:25;4.45;;;3.30;;
11488;SDS011;5801;50.804;12.638;2023-06-14T03:53:51;5.38;;;3.47;;
11488;SDS011;5801;50.804;12.638;2023-06-14T03:56:17;6.38;;;3.70;;
11488;SDS011;5801;50.804;12.638;2023-06-14T03:58:43;4.65;;;3.28;;
11488;SDS011;5801;50.804;12.638;2023-06-14T04:01:09;5.97;;;3.10;;
11488;SDS011;5801;50.804;12.638;2023-06-14T04:03:37;2.72;;;2.53;;
11488;SDS011;5801;50.804;12.638;2023-06-14T04:06:03;4.10;;;2.88;;
11488;SDS011;5801;50.804;12.638;2023-06-14T04:08:30;3.55;;;2.90;;
11488;SDS011;5801;50.804;12.638;2023-06-14T04:10:56;4.80;;;2.67;;
11488;SDS011;5801;50.804;12.638;2023-06-14T04:13:22;4.30;;;3.08;;
11488;SDS011;5801;50.804;12.638;2023-06-14T04:15:48;6.35;;;3.03;;
11488;SDS011;5801;50.804;12.638;2023-06-14T04:18:14;5.72;;;2.88;;
11488;SDS011;5801;50.804;12.638;2023-06-14T04:20:40;5.28;;;2.92;;
11488;SDS011;5801;50.804;12.638;2023-06-14T04:23:16;4.40;;;2.97;;
11488;SDS011;5801;50.804;12.638;2023-06-14T04:25:46;3.22;;;2.78;;
11488;SDS011;5801;50.804;12.638;2023-06-14T04:28:13;8.43;;;3.03;;
11488;SDS011;5801;50.804;12.638;2023-06-14T04:30:40;3.40;;;2.55;;
11488;SDS011;5801;50.804;12.638;2023-06-14T04:33:06;3.47;;;2.65;;
11488;SDS011;5801;50.804;12.638;2023-06-14T04:35:32;4.22;;;2.78;;
11488;SDS011;5801;50.804;12.638;2023-06-14T04:38:00;5.22;;;2.80;;
11488;SDS011;5801;50.804;12.638;2023-06-14T04:40:26;4.32;;;2.65;;
11488;SDS011;5801;50.804;12.638;2023-06-14T04:42:52;2.30;;;2.10;;
11488;SDS011;5801;50.804;12.638;2023-06-14T04:45:19;4.78;;;2.95;;
11488;SDS011;5801;50.804;12.638;2023-06-14T04:47:46;3.08;;;2.75;;
11488;SDS011;5801;50.804;12.638;2023-06-14T04:50:12;2.65;;;2.25;;
11488;SDS011;5801;50.804;12.638;2023-06-14T04:52:39;3.70;;;2.58;;
11488;SDS011;5801;50.804;12.638;2023-06-14T04:55:05;5.07;;;2.80;;
11488;SDS011;5801;50.804;12.638;2023-06-14T04:57:32;6.82;;;2.47;;
11488;SDS011;5801;50.804;12.638;2023-06-14T04:59:58;3.15;;;2.50;;
11488;SDS011;5801;50.804;12.638;2023-06-14T05:02:25;3.40;;;2.78;;
11488;SDS011;5801;50.804;12.638;2023-06-14T05:04:52;4.18;;;2.67;;
11488;SDS011;5801;50.804;12.638;2023-06-14T05:07:19;3.45;;;2.90;;
11488;SDS011;5801;50.804;12.638;2023-06-14T05:09:45;7.07;;;3.05;;
11488;SDS011;5801;50.804;12.638;2023-06-14T05:12:11;3.90;;;2.80;;
11488;SDS011;5801;50.804;12.638;2023-06-14T05:14:37;4.47;;;2.70;;
11488;SDS011;5801;50.804;12.638;2023-06-14T05:17:03;6.75;;;2.60;;
11488;SDS011;5801;50.804;12.638;2023-06-14T05:19:29;5.00;;;2.72;;
11488;SDS011;5801;50.804;12.638;2023-06-14T05:21:54;2.88;;;2.60;;
11488;SDS011;5801;50.804;12.638;2023-06-14T05:24:21;4.43;;;2.95;;
11488;SDS011;5801;50.804;12.638;2023-06-14T05:26:47;3.83;;;2.75;;
11488;SDS011;5801;50.804;12.638;2023-06-14T05:29:13;7.85;;;2.80;;
11488;SDS011;5801;50.804;12.638;2023-06-14T05:31:39;4.85;;;3.05;;
11488;SDS011;5801;50.804;12.638;2023-06-14T05:34:05;3.95;;;2.28;;
11488;SDS011;5801;50.804;12.638;2023-06-14T05:36:31;3.63;;;2.50;;
11488;SDS011;5801;50.804;12.638;2023-06-14T05:38:57;5.72;;;2.65;;
11488;SDS011;5801;50.804;12.638;2023-06-14T05:41:25;5.28;;;2.80;;
11488;SDS011;5801;50.804;12.638;2023-06-14T05:43:51;3.80;;;2.88;;
11488;SDS011;5801;50.804;12.638;2023-06-14T05:46:17;6.43;;;2.70;;
11488;SDS011;5801;50.804;12.638;2023-06-14T05:48:49;5.95;;;2.53;;
11488;SDS011;5801;50.804;12.638;2023-06-14T05:51:15;4.28;;;2.50;;
11488;SDS011;5801;50.804;12.638;2023-06-14T05:53:44;3.22;;;2.40;;
11488;SDS011;5801;50.804;12.638;2023-06-14T05:56:10;2.92;;;2.22;;
11488;SDS011;5801;50.804;12.638;2023-06-14T05:58:36;5.00;;;2.22;;
11488;SDS011;5801;50.804;12.638;2023-06-14T06:01:02;10.05;;;2.88;;
11488;SDS011;5801;50.804;12.638;2023-06-14T06:03:28;4.30;;;2.42;;
11488;SDS011;5801;50.804;12.638;2023-06-14T06:05:54;2.65;;;2.40;;
11488;SDS011;5801;50.804;12.638;2023-06-14T06:08:20;2.45;;;2.25;;
11488;SDS011;5801;50.804;12.638;2023-06-14T06:10:46;3.60;;;2.47;;
11488;SDS011;5801;50.804;12.638;2023-06-14T06:13:12;4.45;;;2.72;;
11488;SDS011;5801;50.804;12.638;2023-06-14T06:15:38;4.45;;;2.30;;
11488;SDS011;5801;50.804;12.638;2023-06-14T06:18:04;5.00;;;2.45;;
11488;SDS011;5801;50.804;12.638;2023-06-14T06:20:30;3.30;;;2.60;;
11488;SDS011;5801;50.804;12.638;2023-06-14T06:22:59;2.22;;;2.03;;
11488;SDS011;5801;50.804;12.638;2023-06-14T06:25:26;3.80;;;2.50;;
11488;SDS011;5801;50.804;12.638;2023-06-14T06:27:52;4.00;;;2.55;;
11488;SDS011;5801;50.804;12.638;2023-06-14T06:30:18;2.33;;;2.03;;
11488;SDS011;5801;50.804;12.638;2023-06-14T06:32:44;3.75;;;2.10;;
11488;SDS011;5801;50.804;12.638;2023-06-14T06:35:10;3.53;;;2.38;;
11488;SDS011;5801;50.804;12.638;2023-06-14T06:37:37;4.88;;;2.58;;
11488;SDS011;5801;50.804;12.638;2023-06-14T06:40:03;4.22;;;2.58;;
11488;SDS011;5801;50.804;12.638;2023-06-14T06:42:31;5.00;;;2.53;;
11488;SDS011;5801;50.804;12.638;2023-06-14T06:44:56;2.47;;;2.28;;
11488;SDS011;5801;50.804;12.638;2023-06-14T06:47:22;4.10;;;2.42;;
11488;SDS011;5801;50.804;12.638;2023-06-14T06:49:49;4.85;;;2.65;;
11488;SDS011;5801;50.804;12.638;2023-06-14T06:52:15;3.10;;;2.53;;
11488;SDS011;5801;50.804;12.638;2023-06-14T06:54:41;3.00;;;2.60;;
11488;SDS011;5801;50.804;12.638;2023-06-14T06:57:07;5.85;;;2.40;;
11488;SDS011;5801;50.804;12.638;2023-06-14T06:59:33;5.88;;;2.35;;
11488;SDS011;5801;50.804;12.638;2023-06-14T07:01:59;3.88;;;2.50;;
11488;SDS011;5801;50.804;12.638;2023-06-14T07:04:25;4.47;;;2.58;;
11488;SDS011;5801;50.804;12.638;2023-06-14T07:06:51;3.28;;;2.45;;
11488;SDS011;5801;50.804;12.638;2023-06-14T07:09:17;3.22;;;2.42;;
11488;SDS011;5801;50.804;12.638;2023-06-14T07:11:45;3.95;;;2.22;;
11488;SDS011;5801;50.804;12.638;2023-06-14T07:14:11;2.50;;;2.00;;
11488;SDS011;5801;50.804;12.638;2023-06-14T07:16:37;4.85;;;2.10;;
11488;SDS011;5801;50.804;12.638;2023-06-14T07:19:03;3.15;;;2.28;;
11488;SDS011;5801;50.804;12.638;2023-06-14T07:21:30;6.00;;;2.60;;
11488;SDS011;5801;50.804;12.638;2023-06-14T07:23:56;4.32;;;2.40;;
11488;SDS011;5801;50.804;12.638;2023-06-14T07:26:22;5.28;;;2.47;;
11488;SDS011;5801;50.804;12.638;2023-06-14T07:28:48;2.30;;;2.10;;
11488;SDS011;5801;50.804;12.638;2023-06-14T07:31:14;3.33;;;2.78;;
11488;SDS011;5801;50.804;12.638;2023-06-14T07:33:41;3.63;;;2.30;;
11488;SDS011;5801;50.804;12.638;2023-06-14T07:36:07;4.07;;;2.60;;
11488;SDS011;5801;50.804;12.638;2023-06-14T07:38:33;3.45;;;2.67;;
11488;SDS011;5801;50.804;12.638;2023-06-14T07:40:59;3.00;;;2.42;;
11488;SDS011;5801;50.804;12.638;2023-06-14T07:43:25;5.43;;;2.55;;
11488;SDS011;5801;50.804;12.638;2023-06-14T07:45:51;4.55;;;2.83;;
11488;SDS011;5801;50.804;12.638;2023-06-14T07:48:17;8.48;;;2.90;;
11488;SDS011;5801;50.804;12.638;2023-06-14T07:50:43;2.70;;;2.42;;
11488;SDS011;5801;50.804;12.638;2023-06-14T07:53:09;4.40;;;2.55;;
11488;SDS011;5801;50.804;12.638;2023-06-14T07:55:35;4.97;;;2.63;;
11488;SDS011;5801;50.804;12.638;2023-06-14T07:58:05;3.05;;;2.72;;
11488;SDS011;5801;50.804;12.638;2023-06-14T08:00:31;3.50;;;2.65;;
11488;SDS011;5801;50.804;12.638;2023-06-14T08:02:57;3.22;;;2.58;;
11488;SDS011;5801;50.804;12.638;2023-06-14T08:05:24;3.83;;;2.53;;
11488;SDS011;5801;50.804;12.638;2023-06-14T08:07:50;5.95;;;2.67;;
11488;SDS011;5801;50.804;12.638;2023-06-14T08:10:16;4.75;;;3.10;;
11488;SDS011;5801;50.804;12.638;2023-06-14T08:12:42;4.00;;;2.65;;
11488;SDS011;5801;50.804;12.638;2023-06-14T08:15:08;3.17;;;2.50;;
11488;SDS011;5801;50.804;12.638;2023-06-14T08:17:34;5.85;;;2.90;;
11488;SDS011;5801;50.804;12.638;2023-06-14T08:20:01;3.92;;;2.95;;
11488;SDS011;5801;50.804;12.638;2023-06-14T08:22:28;4.88;;;2.70;;
11488;SDS011;5801;50.804;12.638;2023-06-14T08:24:58;4.55;;;3.33;;
11488;SDS011;5801;50.804;12.638;2023-06-14T08:27:24;4.72;;;3.47;;
11488;SDS011;5801;50.804;12.638;2023-06-14T08:29:50;5.78;;;3.22;;
11488;SDS011;5801;50.804;12.638;2023-06-14T08:32:16;5.70;;;3.08;;
11488;SDS011;5801;50.804;12.638;2023-06-14T08:34:42;10.68;;;3.90;;
11488;SDS011;5801;50.804;12.638;2023-06-14T08:37:08;6.03;;;3.20;;
11488;SDS011;5801;50.804;12.638;2023-06-14T08:39:34;3.60;;;2.72;;
11488;SDS011;5801;50.804;12.638;2023-06-14T08:42:01;4.13;;;3.13;;
11488;SDS011;5801;50.804;12.638;2023-06-14T08:44:28;6.00;;;3.20;;
11488;SDS011;5801;50.804;12.638;2023-06-14T08:46:55;4.25;;;2.92;;
11488;SDS011;5801;50.804;12.638;2023-06-14T08:49:23;4.55;;;2.92;;
11488;SDS011;5801;50.804;12.638;2023-06-14T08:51:52;3.78;;;2.90;;
11488;SDS011;5801;50.804;12.638;2023-06-14T08:54:22;4.80;;;3.55;;
11488;SDS011;5801;50.804;12.638;2023-06-14T08:56:49;5.25;;;2.67;;
11488;SDS011;5801;50.804;12.638;2023-06-14T08:59:17;3.35;;;3.05;;
11488;SDS011;5801;50.804;12.638;2023-06-14T09:01:43;3.60;;;3.30;;
11488;SDS011;5801;50.804;12.638;2023-06-14T09:04:10;6.80;;;2.70;;
11488;SDS011;5801;50.804;12.638;2023-06-14T09:06:36;5.22;;;2.70;;
11488;SDS011;5801;50.804;12.638;2023-06-14T09:09:02;3.33;;;2.80;;
11488;SDS011;5801;50.804;12.638;2023-06-14T09:11:29;3.97;;;3.25;;
11488;SDS011;5801;50.804;12.638;2023-06-14T09:13:55;3.60;;;2.70;;
11488;SDS011;5801;50.804;12.638;2023-06-14T09:16:21;5.90;;;3.40;;
11488;SDS011;5801;50.804;12.638;2023-06-14T09:18:47;6.38;;;3.42;;
11488;SDS011;5801;50.804;12.638;2023-06-14T09:21:13;3.17;;;2.72;;
11488;SDS011;5801;50.804;12.638;2023-06-14T09:23:40;4.63;;;3.08;;
11488;SDS011;5801;50.804;12.638;2023-06-14T09:26:11;4.78;;;3.78;;
11488;SDS011;5801;50.804;12.638;2023-06-14T09:28:41;4.47;;;3.25;;
11488;SDS011;5801;50.804;12.638;2023-06-14T09:31:14;4.45;;;2.53;;
11488;SDS011;5801;50.804;12.638;2023-06-14T09:33:44;4.03;;;2.55;;
11488;SDS011;5801;50.804;12.638;2023-06-14T09:36:14;4.55;;;3.00;;
11488;SDS011;5801;50.804;12.638;2023-06-14T09:38:42;4.53;;;2.50;;
11488;SDS011;5801;50.804;12.638;2023-06-14T09:41:08;8.32;;;2.53;;
11488;SDS011;5801;50.804;12.638;2023-06-14T09:43:33;4.68;;;2.42;;
11488;SDS011;5801;50.804;12.638;2023-06-14T09:46:02;4.68;;;2.67;;
11488;SDS011;5801;50.804;12.638;2023-06-14T09:48:29;2.85;;;2.50;;
11488;SDS011;5801;50.804;12.638;2023-06-14T09:50:55;8.15;;;2.78;;
11488;SDS011;5801;50.804;12.638;2023-06-14T09:53:24;3.85;;;2.70;;
11488;SDS011;5801;50.804;12.638;2023-06-14T09:55:52;6.40;;;3.00;;
11488;SDS011;5801;50.804;12.638;2023-06-14T09:58:23;5.38;;;2.65;;
11488;SDS011;5801;50.804;12.638;2023-06-14T10:00:51;5.82;;;3.00;;
11488;SDS011;5801;50.804;12.638;2023-06-14T10:03:21;3.47;;;2.58;;
11488;SDS011;5801;50.804;12.638;2023-06-14T10:05:50;8.40;;;2.95;;
11488;SDS011;5801;50.804;12.638;2023-06-14T10:08:17;5.80;;;2.67;;
11488;SDS011;5801;50.804;12.638;2023-06-14T10:10:44;3.10;;;2.55;;
11488;SDS011;5801;50.804;12.638;2023-06-14T10:13:11;3.13;;;2.38;;
11488;SDS011;5801;50.804;12.638;2023-06-14T10:15:50;3.45;;;2.60;;
11488;SDS011;5801;50.804;12.638;2023-06-14T10:21:18;2.75;;;2.53;;
11488;SDS011;5801;50.804;12.638;2023-06-14T10:23:47;4.93;;;2.47;;
11488;SDS011;5801;50.804;12.638;2023-06-14T10:26:18;3.50;;;2.60;;
11488;SDS011;5801;50.804;12.638;2023-06-14T10:28:56;3.85;;;2.40;;
11488;SDS011;5801;50.804;12.638;2023-06-14T10:31:23;3.05;;;2.75;;
11488;SDS011;5801;50.804;12.638;2023-06-14T10:34:06;4.47;;;2.63;;
11488;SDS011;5801;50.804;12.638;2023-06-14T10:36:31;3.10;;;2.50;;
11488;SDS011;5801;50.804;12.638;2023-06-14T10:39:06;5.97;;;2.72;;
11488;SDS011;5801;50.804;12.638;2023-06-14T10:41:37;5.32;;;3.10;;
11488;SDS011;5801;50.804;12.638;2023-06-14T10:46:48;3.25;;;2.90;;
11488;SDS011;5801;50.804;12.638;2023-06-14T10:49:18;2.88;;;2.58;;
11488;SDS011;5801;50.804;12.638;2023-06-14T10:51:45;3.78;;;2.60;;
11488;SDS011;5801;50.804;12.638;2023-06-14T10:54:14;3.08;;;2.78;;
11488;SDS011;5801;50.804;12.638;2023-06-14T10:56:50;4.68;;;2.83;;
11488;SDS011;5801;50.804;12.638;2023-06-14T10:59:17;3.17;;;2.88;;
11488;SDS011;5801;50.804;12.638;2023-06-14T11:04:52;4.57;;;3.05;;
11488;SDS011;5801;50.804;12.638;2023-06-14T11:13:06;3.65;;;2.90;;
11488;SDS011;5801;50.804;12.638;2023-06-14T11:15:33;12.48;;;3.35;;
11488;SDS011;5801;50.804;12.638;2023-06-14T11:18:00;3.33;;;3.03;;
11488;SDS011;5801;50.804;12.638;2023-06-14T11:20:29;2.60;;;2.40;;
11488;SDS011;5801;50.804;12.638;2023-06-14T11:22:57;3.17;;;2.58;;
11488;SDS011;5801;50.804;12.638;2023-06-14T11:25:24;3.30;;;2.70;;
11488;SDS011;5801;50.804;12.638;2023-06-14T11:27:50;4.45;;;2.70;;
11488;SDS011;5801;50.804;12.638;2023-06-14T11:30:16;3.30;;;3.00;;
11488;SDS011;5801;50.804;12.638;2023-06-14T11:32:42;3.33;;;2.55;;
11488;SDS011;5801;50.804;12.638;2023-06-14T11:35:10;2.88;;;2.67;;
11488;SDS011;5801;50.804;12.638;2023-06-14T11:37:36;2.50;;;2.30;;
11488;SDS011;5801;50.804;12.638;2023-06-14T11:40:03;4.18;;;2.78;;
11488;SDS011;5801;50.804;12.638;2023-06-14T11:42:34;3.65;;;2.55;;
11488;SDS011;5801;50.804;12.638;2023-06-14T11:45:00;3.55;;;2.50;;
11488;SDS011;5801;50.804;12.638;2023-06-14T11:47:34;3.13;;;2.60;;
11488;SDS011;5801;50.804;12.638;2023-06-14T11:50:00;2.40;;;2.17;;
11488;SDS011;5801;50.804;12.638;2023-06-14T11:52:26;5.47;;;2.20;;
11488;SDS011;5801;50.804;12.638;2023-06-14T11:54:53;7.18;;;2.78;;
11488;SDS011;5801;50.804;12.638;2023-06-14T11:57:19;3.03;;;2.30;;
11488;SDS011;5801;50.804;12.638;2023-06-14T11:59:45;2.90;;;2.30;;
11488;SDS011;5801;50.804;12.638;2023-06-14T12:02:17;2.22;;;2.03;;
11488;SDS011;5801;50.804;12.638;2023-06-14T12:04:46;5.82;;;2.35;;
11488;SDS011;5801;50.804;12.638;2023-06-14T12:07:13;6.40;;;2.28;;
11488;SDS011;5801;50.804;12.638;2023-06-14T12:09:41;2.72;;;2.50;;
11488;SDS011;5801;50.804;12.638;2023-06-14T12:12:09;3.10;;;2.20;;
11488;SDS011;5801;50.804;12.638;2023-06-14T12:14:36;2.53;;;2.22;;
11488;SDS011;5801;50.804;12.638;2023-06-14T12:17:05;2.97;;;2.30;;
11488;SDS011;5801;50.804;12.638;2023-06-14T12:19:31;2.30;;;2.10;;
11488;SDS011;5801;50.804;12.638;2023-06-14T12:21:59;2.95;;;1.95;;
11488;SDS011;5801;50.804;12.638;2023-06-14T12:24:29;4.25;;;1.88;;
11488;SDS011;5801;50.804;12.638;2023-06-14T12:26:57;2.30;;;2.10;;
11488;SDS011;5801;50.804;12.638;2023-06-14T12:29:24;2.92;;;2.28;;
11488;SDS011;5801;50.804;12.638;2023-06-14T12:31:50;2.20;;;2.00;;
11488;SDS011;5801;50.804;12.638;2023-06-14T12:34:18;3.05;;;2.50;;
11488;SDS011;5801;50.804;12.638;2023-06-14T12:36:44;2.53;;;2.33;;
11488;SDS011;5801;50.804;12.638;2023-06-14T12:39:11;2.78;;;2.13;;
11488;SDS011;5801;50.804;12.638;2023-06-14T12:41:37;4.05;;;2.60;;
11488;SDS011;5801;50.804;12.638;2023-06-14T12:44:03;3.83;;;2.35;;
11488;SDS011;5801;50.804;12.638;2023-06-14T12:46:30;3.33;;;2.17;;
11488;SDS011;5801;50.804;12.638;2023-06-14T12:48:56;3.67;;;2.50;;
11488;SDS011;5801;50.804;12.638;2023-06-14T12:51:22;2.92;;;2.35;;
11488;SDS011;5801;50.804;12.638;2023-06-14T12:53:49;4.30;;;2.30;;
11488;SDS011;5801;50.804;12.638;2023-06-14T12:56:15;2.72;;;2.10;;
11488;SDS011;5801;50.804;12.638;2023-06-14T12:58:42;9.02;;;2.38;;
11488;SDS011;5801;50.804;12.638;2023-06-14T13:01:08;3.78;;;2.35;;
11488;SDS011;5801;50.804;12.638;2023-06-14T13:03:33;4.28;;;2.08;;
11488;SDS011;5801;50.804;12.638;2023-06-14T13:06:00;2.15;;;1.95;;
11488;SDS011;5801;50.804;12.638;2023-06-14T13:08:27;3.15;;;2.13;;
11488;SDS011;5801;50.804;12.638;2023-06-14T13:10:53;4.25;;;2.38;;
11488;SDS011;5801;50.804;12.638;2023-06-14T13:13:19;3.35;;;2.40;;
11488;SDS011;5801;50.804;12.638;2023-06-14T13:15:45;2.67;;;2.40;;
11488;SDS011;5801;50.804;12.638;2023-06-14T13:18:11;3.15;;;2.22;;
11488;SDS011;5801;50.804;12.638;2023-06-14T13:20:40;2.80;;;2.05;;
11488;SDS011;5801;50.804;12.638;2023-06-14T13:23:06;4.68;;;2.05;;
11488;SDS011;5801;50.804;12.638;2023-06-14T13:25:36;2.22;;;2.03;;
11488;SDS011;5801;50.804;12.638;2023-06-14T13:28:03;3.05;;;2.25;;
11488;SDS011;5801;50.804;12.638;2023-06-14T13:30:30;2.97;;;2.30;;
11488;SDS011;5801;50.804;12.638;2023-06-14T13:32:56;2.65;;;2.10;;
11488;SDS011;5801;50.804;12.638;2023-06-14T13:35:23;7.10;;;2.40;;
11488;SDS011;5801;50.804;12.638;2023-06-14T13:37:48;3.50;;;2.40;;
11488;SDS011;5801;50.804;12.638;2023-06-14T13:40:15;2.42;;;2.20;;
11488;SDS011;5801;50.804;12.638;2023-06-14T13:42:41;2.78;;;2.58;;
11488;SDS011;5801;50.804;12.638;2023-06-14T13:45:07;3.20;;;2.25;;
11488;SDS011;5801;50.804;12.638;2023-06-14T13:47:33;4.18;;;2.50;;
11488;SDS011;5801;50.804;12.638;2023-06-14T13:50:00;2.63;;;2.00;;
11488;SDS011;5801;50.804;12.638;2023-06-14T13:52:26;2.53;;;2.08;;
11488;SDS011;5801;50.804;12.638;2023-06-14T13:54:52;3.25;;;2.00;;
11488;SDS011;5801;50.804;12.638;2023-06-14T13:57:18;2.25;;;1.90;;
11488;SDS011;5801;50.804;12.638;2023-06-14T13:59:44;1.77;;;1.67;;
11488;SDS011;5801;50.804;12.638;2023-06-14T14:02:10;2.38;;;1.75;;
11488;SDS011;5801;50.804;12.638;2023-06-14T14:04:37;2.60;;;1.85;;
11488;SDS011;5801;50.804;12.638;2023-06-14T14:07:06;2.03;;;1.80;;
11488;SDS011;5801;50.804;12.638;2023-06-14T14:09:33;1.85;;;1.65;;
11488;SDS011;5801;50.804;12.638;2023-06-14T14:11:59;3.35;;;2.15;;
11488;SDS011;5801;50.804;12.638;2023-06-14T14:14:27;3.38;;;1.92;;
11488;SDS011;5801;50.804;12.638;2023-06-14T14:16:53;1.80;;;1.65;;
11488;SDS011;5801;50.804;12.638;2023-06-14T14:19:19;2.10;;;1.90;;
11488;SDS011;5801;50.804;12.638;2023-06-14T14:21:46;2.75;;;2.28;;
11488;SDS011;5801;50.804;12.638;2023-06-14T14:24:12;3.03;;;2.42;;
11488;SDS011;5801;50.804;12.638;2023-06-14T14:26:38;3.90;;;2.30;;
11488;SDS011;5801;50.804;12.638;2023-06-14T14:29:04;3.03;;;2.30;;
11488;SDS011;5801;50.804;12.638;2023-06-14T14:31:30;5.28;;;2.50;;
11488;SDS011;5801;50.804;12.638;2023-06-14T14:33:56;2.72;;;2.30;;
11488;SDS011;5801;50.804;12.638;2023-06-14T14:36:22;3.15;;;2.50;;
11488;SDS011;5801;50.804;12.638;2023-06-14T14:38:48;2.70;;;2.15;;
11488;SDS011;5801;50.804;12.638;2023-06-14T14:41:17;3.58;;;2.35;;
11488;SDS011;5801;50.804;12.638;2023-06-14T14:43:44;3.90;;;2.80;;
11488;SDS011;5801;50.804;12.638;2023-06-14T14:46:10;4.00;;;2.25;;
11488;SDS011;5801;50.804;12.638;2023-06-14T14:48:36;2.60;;;2.25;;
11488;SDS011;5801;50.804;12.638;2023-06-14T14:51:01;6.13;;;2.40;;
11488;SDS011;5801;50.804;12.638;2023-06-14T14:53:28;5.50;;;2.35;;
11488;SDS011;5801;50.804;12.638;2023-06-14T14:55:54;4.70;;;1.95;;
11488;SDS011;5801;50.804;12.638;2023-06-14T14:58:20;2.22;;;2.03;;
11488;SDS011;5801;50.804;12.638;2023-06-14T15:00:46;4.30;;;2.17;;
11488;SDS011;5801;50.804;12.638;2023-06-14T15:03:12;3.05;;;2.08;;
11488;SDS011;5801;50.804;12.638;2023-06-14T15:05:38;2.10;;;1.90;;
11488;SDS011;5801;50.804;12.638;2023-06-14T15:08:04;2.08;;;1.88;;